createdAt,value
2019-03-20T00:02:21.138Z,99.90
2019-03-20T00:04:51.355Z,99.90
2019-03-20T00:07:21.678Z,99.90
2019-03-20T00:09:52.002Z,99.90
2019-03-20T00:12:22.333Z,99.90
2019-03-20T00:14:52.650Z,99.90
2019-03-20T00:17:22.769Z,99.90
2019-03-20T00:20:05.240Z,99.90
2019-03-20T00:22:35.499Z,99.90
2019-03-20T00:25:07.666Z,99.90
2019-03-20T00:27:37.989Z,99.90
2019-03-20T00:30:32.071Z,99.90
2019-03-20T00:33:02.395Z,99.90
2019-03-20T00:35:32.725Z,99.90
2019-03-20T00:38:03.248Z,99.90
2019-03-20T00:40:33.570Z,99.90
2019-03-20T00:43:16.388Z,99.90
2019-03-20T00:45:46.710Z,99.90
2019-03-20T00:48:17.034Z,99.90
2019-03-20T00:50:47.562Z,99.90
2019-03-20T00:53:17.682Z,99.90
2019-03-20T00:55:48.099Z,99.90
2019-03-20T00:58:18.535Z,99.90
2019-03-20T01:00:48.861Z,99.90
2019-03-20T01:03:19.183Z,99.90
2019-03-20T01:05:49.505Z,99.90
2019-03-20T01:08:20.033Z,99.90
2019-03-20T01:10:50.357Z,99.90
2019-03-20T01:13:20.680Z,99.90
2019-03-20T01:15:51.003Z,99.90
2019-03-20T01:18:22.540Z,99.90
2019-03-20T01:20:53.087Z,99.90
2019-03-20T01:23:23.408Z,99.90
2019-03-20T01:25:53.734Z,99.90
2019-03-20T01:28:24.263Z,99.90
2019-03-20T01:30:54.792Z,99.90
2019-03-20T01:33:25.321Z,99.90
2019-03-20T01:35:55.645Z,99.90
2019-03-20T01:38:38.095Z,99.90
2019-03-20T01:41:08.373Z,99.90
2019-03-20T01:43:38.695Z,99.90
2019-03-20T01:46:09.223Z,99.90
2019-03-20T01:48:39.752Z,99.90
2019-03-20T01:51:21.546Z,99.90
2019-03-20T01:53:51.868Z,99.90
2019-03-20T01:56:21.990Z,99.90
2019-03-20T01:58:52.300Z,99.90
2019-03-20T02:01:23.045Z,99.90
2019-03-20T02:03:53.982Z,99.90
2019-03-20T02:06:24.306Z,99.90
2019-03-20T02:08:54.639Z,99.90
2019-03-20T02:11:25.158Z,99.90
2019-03-20T02:13:55.277Z,99.90
2019-03-20T02:16:25.613Z,99.90
2019-03-20T02:18:55.926Z,99.90
2019-03-20T02:21:26.248Z,99.90
2019-03-20T02:23:56.572Z,99.90
2019-03-20T02:26:26.895Z,99.90
2019-03-20T02:28:57.221Z,99.90
2019-03-20T02:31:27.544Z,99.90
2019-03-20T02:33:57.867Z,99.90
2019-03-20T02:36:28.191Z,99.90
2019-03-20T02:38:58.930Z,99.90
2019-03-20T02:41:29.247Z,99.90
2019-03-20T02:43:59.981Z,99.90
2019-03-20T02:46:30.306Z,99.90
2019-03-20T02:49:00.630Z,99.90
2019-03-20T02:51:30.954Z,99.90
2019-03-20T02:54:01.278Z,99.90
2019-03-20T02:56:31.818Z,99.90
2019-03-20T02:59:02.538Z,99.90
2019-03-20T03:01:33.270Z,99.90
2019-03-20T03:04:03.596Z,99.90
2019-03-20T03:06:33.920Z,99.90
2019-03-20T03:09:07.524Z,99.90
2019-03-20T03:11:37.856Z,99.90
2019-03-20T03:14:08.371Z,99.90
2019-03-20T03:16:38.694Z,99.90
2019-03-20T03:19:09.223Z,99.90
2019-03-20T03:21:39.758Z,99.90
2019-03-20T03:24:10.077Z,99.90
2019-03-20T03:26:40.408Z,99.90
2019-03-20T03:29:10.928Z,99.90
2019-03-20T03:31:41.255Z,99.90
2019-03-20T03:34:11.589Z,99.90
2019-03-20T03:36:41.901Z,99.90
2019-03-20T03:39:12.429Z,99.90
2019-03-20T03:41:42.750Z,99.90
2019-03-20T03:44:13.076Z,99.90
2019-03-20T03:46:43.400Z,99.90
2019-03-20T03:49:13.724Z,99.90
2019-03-20T03:51:44.047Z,99.90
2019-03-20T03:54:14.360Z,99.90
2019-03-20T03:56:44.902Z,99.90
2019-03-20T03:59:15.018Z,99.90
2019-03-20T04:01:45.545Z,99.90
2019-03-20T04:04:15.666Z,99.90
2019-03-20T04:06:45.787Z,99.90
2019-03-20T04:09:16.317Z,99.90
2019-03-20T04:11:46.431Z,99.90
2019-03-20T04:14:16.857Z,99.90
2019-03-20T04:16:47.682Z,99.90
2019-03-20T04:19:17.812Z,99.90
2019-03-20T04:21:48.341Z,99.90
2019-03-20T04:24:18.458Z,99.90
2019-03-20T04:26:48.783Z,99.90
2019-03-20T04:29:19.108Z,99.90
2019-03-20T04:31:49.432Z,99.90
2019-03-20T04:34:19.754Z,99.90
2019-03-20T04:36:50.082Z,99.90
2019-03-20T04:39:20.400Z,99.90
2019-03-20T04:41:50.733Z,99.90
2019-03-20T04:44:21.049Z,99.90
2019-03-20T04:46:51.166Z,99.90
2019-03-20T04:49:21.699Z,99.90
2019-03-20T04:51:52.225Z,99.90
2019-03-20T04:54:22.549Z,99.90
2019-03-20T04:56:53.079Z,99.90
2019-03-20T04:59:23.195Z,99.90
2019-03-20T05:01:53.520Z,99.90
2019-03-20T05:04:23.843Z,99.90
2019-03-20T05:06:58.909Z,99.90
2019-03-20T05:09:25.926Z,99.90
2019-03-20T05:11:56.248Z,99.90
2019-03-20T05:14:26.576Z,99.90
2019-03-20T05:16:56.895Z,99.90
2019-03-20T05:19:27.219Z,99.90
2019-03-20T05:21:57.542Z,99.90
2019-03-20T05:24:27.865Z,99.90
2019-03-20T05:26:58.191Z,99.90
2019-03-20T05:29:28.311Z,99.90
2019-03-20T05:32:00.367Z,99.90
2019-03-20T05:34:49.845Z,99.90
2019-03-20T05:37:20.171Z,99.90
2019-03-20T05:39:50.493Z,99.90
2019-03-20T05:42:21.672Z,99.90
2019-03-20T05:44:52.574Z,99.90
2019-03-20T05:47:22.897Z,99.90
2019-03-20T05:49:53.221Z,99.90
2019-03-20T05:52:23.385Z,99.90
2019-03-20T05:54:53.667Z,99.90
2019-03-20T05:57:23.989Z,99.90
2019-03-20T05:59:54.310Z,99.90
2019-03-20T06:02:25.788Z,99.90
2019-03-20T06:04:56.393Z,99.90
2019-03-20T06:07:26.724Z,99.90
2019-03-20T06:09:57.047Z,99.90
2019-03-20T06:12:27.249Z,99.90
2019-03-20T06:14:58.301Z,99.90
2019-03-20T06:17:28.831Z,99.90
2019-03-20T06:19:58.949Z,99.90
2019-03-20T06:22:29.477Z,99.90
2019-03-20T06:25:00.006Z,99.90
2019-03-20T06:27:30.332Z,99.90
2019-03-20T06:30:00.653Z,99.90
2019-03-20T06:32:30.976Z,99.90
2019-03-20T06:35:01.720Z,99.90
2019-03-20T06:37:32.720Z,99.90
2019-03-20T06:40:03.596Z,99.90
2019-03-20T06:42:33.715Z,99.90
2019-03-20T06:45:04.646Z,99.90
2019-03-20T06:47:35.174Z,99.90
2019-03-20T06:50:08.367Z,99.90
2019-03-20T06:52:39.097Z,99.90
2019-03-20T06:55:10.859Z,99.90
2019-03-20T06:57:41.589Z,99.90
2019-03-20T07:00:37.307Z,99.90
2019-03-20T07:03:10.498Z,99.90
2019-03-20T07:06:11.746Z,99.90
2019-03-20T07:09:16.888Z,99.90
2019-03-20T07:11:47.505Z,99.90
2019-03-20T07:14:17.738Z,99.90
2019-03-20T07:16:48.268Z,98.90
2019-03-20T07:19:18.386Z,98.60
2019-03-20T07:21:48.711Z,97.20
2019-03-20T07:24:19.241Z,96.00
2019-03-20T07:26:49.343Z,96.00
2019-03-20T07:29:19.475Z,95.90
2019-03-20T07:31:49.798Z,96.60
2019-03-20T07:34:19.917Z,96.10
2019-03-20T07:36:50.446Z,96.00
2019-03-20T07:39:20.775Z,95.60
2019-03-20T07:41:51.298Z,95.80
2019-03-20T07:44:21.621Z,95.70
2019-03-20T07:46:51.947Z,96.10
2019-03-20T07:49:22.473Z,95.70
2019-03-20T07:51:52.589Z,96.20
2019-03-20T07:54:22.916Z,96.20
2019-03-20T07:56:53.239Z,95.80
2019-03-20T07:59:23.768Z,94.30
2019-03-20T08:01:53.888Z,93.70
2019-03-20T08:04:24.211Z,93.00
2019-03-20T08:06:54.534Z,92.00
2019-03-20T08:09:25.778Z,91.60
2019-03-20T08:11:56.206Z,92.30
2019-03-20T08:14:26.734Z,92.90
2019-03-20T08:16:56.854Z,92.40
2019-03-20T08:19:27.180Z,90.80
2019-03-20T08:21:57.501Z,90.70
2019-03-20T08:24:27.825Z,90.10
2019-03-20T08:26:57.948Z,89.70
2019-03-20T08:29:28.267Z,86.60
2019-03-20T08:31:58.801Z,86.40
2019-03-20T08:34:29.325Z,86.40
2019-03-20T08:37:02.335Z,82.50
2019-03-20T08:39:31.613Z,79.80
2019-03-20T08:42:02.139Z,80.50
2019-03-20T08:44:32.463Z,78.50
2019-03-20T08:47:02.790Z,77.00
2019-03-20T08:49:33.520Z,79.20
2019-03-20T08:52:03.637Z,81.80
2019-03-20T08:54:33.961Z,81.70
2019-03-20T08:57:04.286Z,79.40
2019-03-20T08:59:34.610Z,78.30
2019-03-20T09:02:05.202Z,74.70
2019-03-20T09:04:35.824Z,78.70
2019-03-20T09:07:06.404Z,78.30
2019-03-20T09:09:36.723Z,75.40
2019-03-20T09:12:07.047Z,74.50
2019-03-20T09:14:37.370Z,74.70
2019-03-20T09:17:07.694Z,74.50
2019-03-20T09:19:38.018Z,72.80
2019-03-20T09:22:08.342Z,72.10
2019-03-20T09:24:38.683Z,74.70
2019-03-20T09:27:08.988Z,74.50
2019-03-20T09:29:41.125Z,74.10
2019-03-20T09:32:11.684Z,72.90
2019-03-20T09:34:42.214Z,75.50
2019-03-20T09:37:12.742Z,74.20
2019-03-20T09:39:43.066Z,74.90
2019-03-20T09:42:13.189Z,74.80
2019-03-20T09:44:43.509Z,75.80
2019-03-20T09:47:13.832Z,76.80
2019-03-20T09:49:44.157Z,78.00
2019-03-20T09:52:14.290Z,75.50
2019-03-20T09:54:44.802Z,75.60
2019-03-20T09:57:16.356Z,71.20
2019-03-20T09:59:46.679Z,70.20
2019-03-20T10:02:17.002Z,69.70
2019-03-20T10:04:47.530Z,68.10
2019-03-20T10:07:18.470Z,66.10
2019-03-20T10:09:48.999Z,62.30
2019-03-20T10:12:19.324Z,62.20
2019-03-20T10:14:49.650Z,61.70
2019-03-20T10:17:19.766Z,62.40
2019-03-20T10:19:50.293Z,59.80
2019-03-20T10:22:20.616Z,57.70
2019-03-20T10:24:50.944Z,58.90
2019-03-20T10:27:21.264Z,59.20
2019-03-20T10:29:51.588Z,60.90
2019-03-20T10:32:21.709Z,60.60
2019-03-20T10:34:52.030Z,61.30
2019-03-20T10:37:22.354Z,62.70
2019-03-20T10:39:52.473Z,59.50
2019-03-20T10:42:23.001Z,60.60
2019-03-20T10:44:53.939Z,62.90
2019-03-20T10:47:24.462Z,61.80
2019-03-20T10:49:54.792Z,61.50
2019-03-20T10:52:25.322Z,61.50
2019-03-20T10:54:55.648Z,59.40
2019-03-20T10:57:25.969Z,61.00
2019-03-20T10:59:56.294Z,60.90
2019-03-20T11:02:26.622Z,58.50
2019-03-20T11:04:56.939Z,59.10
2019-03-20T11:07:27.472Z,60.60
2019-03-20T11:09:57.586Z,59.20
2019-03-20T11:12:27.910Z,60.90
2019-03-20T11:14:58.234Z,63.80
2019-03-20T11:17:28.762Z,63.20
2019-03-20T11:20:00.449Z,61.60
2019-03-20T11:22:31.253Z,58.40
2019-03-20T11:25:01.577Z,58.20
2019-03-20T11:27:33.378Z,59.60
2019-03-20T11:30:06.525Z,57.10
2019-03-20T11:32:36.848Z,56.00
2019-03-20T11:35:07.407Z,53.50
2019-03-20T11:37:37.496Z,51.50
2019-03-20T11:40:13.350Z,52.00
2019-03-20T11:42:44.082Z,50.00
2019-03-20T11:45:14.815Z,47.30
2019-03-20T11:47:45.140Z,50.10
2019-03-20T11:50:20.829Z,50.90
2019-03-20T11:52:51.119Z,48.20
2019-03-20T11:55:21.848Z,43.30
2019-03-20T11:57:52.058Z,48.90
2019-03-20T12:00:24.338Z,51.50
2019-03-20T12:02:54.455Z,51.80
2019-03-20T12:05:24.778Z,49.50
2019-03-20T12:07:55.103Z,45.80
2019-03-20T12:10:37.099Z,43.60
2019-03-20T12:13:08.761Z,47.10
2019-03-20T12:15:38.975Z,42.50
2019-03-20T12:18:10.531Z,45.60
2019-03-20T12:20:42.695Z,51.80
2019-03-20T12:23:13.698Z,44.60
2019-03-20T12:25:44.468Z,45.90
2019-03-20T12:28:16.330Z,47.20
2019-03-20T12:30:46.858Z,50.60
2019-03-20T12:33:17.182Z,45.90
2019-03-20T12:35:48.938Z,45.70
2019-03-20T12:38:19.263Z,51.80
2019-03-20T12:40:49.794Z,57.20
2019-03-20T12:43:20.117Z,59.20
2019-03-20T12:45:50.236Z,63.50
2019-03-20T12:48:20.561Z,66.20
2019-03-20T12:50:51.092Z,67.20
2019-03-20T12:53:25.607Z,67.40
2019-03-20T12:55:55.832Z,67.40
2019-03-20T12:58:26.156Z,66.20
2019-03-20T13:00:56.477Z,66.80
2019-03-20T13:03:26.801Z,67.20
2019-03-20T13:05:57.118Z,65.80
2019-03-20T13:08:27.243Z,65.60
2019-03-20T13:10:57.774Z,66.30
2019-03-20T13:13:28.301Z,64.40
2019-03-20T13:15:58.626Z,61.10
2019-03-20T13:18:28.950Z,59.70
2019-03-20T13:20:59.261Z,60.20
2019-03-20T13:23:35.536Z,57.20
2019-03-20T13:26:05.858Z,59.60
2019-03-20T13:28:36.181Z,60.40
2019-03-20T13:31:12.035Z,62.30
2019-03-20T13:33:42.770Z,64.50
2019-03-20T13:36:14.117Z,66.20
2019-03-20T13:38:44.440Z,67.20
2019-03-20T13:41:14.764Z,66.70
2019-03-20T13:43:45.088Z,67.70
2019-03-20T13:46:15.617Z,67.80
2019-03-20T13:48:45.940Z,68.40
2019-03-20T13:51:16.270Z,70.50
2019-03-20T13:53:46.587Z,70.30
2019-03-20T13:56:16.913Z,71.00
2019-03-20T13:58:46.914Z,71.00
2019-03-20T14:01:17.762Z,70.50
2019-03-20T14:03:48.496Z,70.50
2019-03-20T14:06:19.031Z,70.60
2019-03-20T14:08:49.556Z,72.70
2019-03-20T14:11:20.491Z,73.20
2019-03-20T14:13:50.816Z,72.20
2019-03-20T14:16:21.344Z,74.10
2019-03-20T14:18:51.464Z,73.50
2019-03-20T14:21:22.404Z,70.70
2019-03-20T14:23:52.929Z,71.70
2019-03-20T14:26:23.138Z,71.40
2019-03-20T14:28:53.873Z,71.80
2019-03-20T14:31:24.930Z,72.80
2019-03-20T14:33:55.248Z,72.70
2019-03-20T14:36:25.367Z,73.00
2019-03-20T14:38:55.485Z,72.80
2019-03-20T14:41:26.017Z,73.40
2019-03-20T14:43:56.345Z,74.40
2019-03-20T14:46:26.662Z,74.00
2019-03-20T14:48:57.194Z,75.40
2019-03-20T14:51:27.405Z,75.80
2019-03-20T14:53:58.042Z,75.90
2019-03-20T14:56:28.580Z,76.20
2019-03-20T14:58:58.898Z,76.30
2019-03-20T15:01:30.859Z,78.00
2019-03-20T15:04:01.184Z,77.50
2019-03-20T15:06:31.394Z,77.60
2019-03-20T15:09:02.035Z,77.30
2019-03-20T15:11:32.562Z,77.60
2019-03-20T15:14:02.885Z,79.10
2019-03-20T15:16:33.210Z,78.50
2019-03-20T15:19:03.535Z,79.30
2019-03-20T15:21:34.061Z,79.70
2019-03-20T15:24:06.031Z,79.30
2019-03-20T15:26:36.757Z,80.80
2019-03-20T15:29:07.275Z,81.00
2019-03-20T15:31:37.609Z,81.00
2019-03-20T15:34:08.753Z,81.10
2019-03-20T15:36:39.485Z,82.30
2019-03-20T15:39:10.019Z,84.00
2019-03-20T15:41:40.746Z,82.60
2019-03-20T15:44:11.479Z,83.60
2019-03-20T15:46:42.215Z,84.20
2019-03-20T15:49:12.332Z,85.20
2019-03-20T15:51:42.695Z,84.50
2019-03-20T15:54:13.184Z,85.50
2019-03-20T15:56:43.513Z,85.90
2019-03-20T15:59:13.836Z,86.60
2019-03-20T16:01:44.156Z,86.30
2019-03-20T16:04:14.684Z,87.50
2019-03-20T16:06:45.010Z,87.30
2019-03-20T16:09:15.741Z,87.90
2019-03-20T16:11:47.694Z,88.00
2019-03-20T16:14:18.029Z,88.20
2019-03-20T16:16:48.351Z,88.70
2019-03-20T16:19:18.674Z,89.30
2019-03-20T16:21:49.010Z,90.10
2019-03-20T16:24:20.234Z,90.40
2019-03-20T16:26:51.080Z,90.80
2019-03-20T16:29:21.608Z,91.20
2019-03-20T16:31:51.935Z,91.30
2019-03-20T16:34:22.255Z,91.60
2019-03-20T16:36:52.469Z,92.10
2019-03-20T16:39:22.912Z,92.10
2019-03-20T16:41:54.045Z,92.40
2019-03-20T16:44:24.463Z,92.80
2019-03-20T16:46:55.014Z,93.10
2019-03-20T16:49:25.836Z,93.20
2019-03-20T16:51:58.628Z,93.30
2019-03-20T16:54:28.948Z,93.80
2019-03-20T16:56:59.269Z,93.80
2019-03-20T16:59:29.245Z,93.90
2019-03-20T17:01:59.151Z,94.30
2019-03-20T17:04:29.416Z,94.70
2019-03-20T17:06:59.742Z,94.90
2019-03-20T17:09:30.066Z,94.80
2019-03-20T17:12:00.390Z,95.00
2019-03-20T17:14:30.712Z,95.00
2019-03-20T17:17:01.445Z,95.40
2019-03-20T17:19:31.575Z,95.00
2019-03-20T17:22:01.890Z,95.10
2019-03-20T17:24:32.416Z,95.00
2019-03-20T17:27:02.740Z,95.30
2019-03-20T17:29:33.053Z,95.60
2019-03-20T17:32:03.388Z,95.70
2019-03-20T17:34:33.916Z,95.80
2019-03-20T17:37:04.241Z,95.80
2019-03-20T17:39:34.359Z,95.90
2019-03-20T17:42:04.887Z,96.00
2019-03-20T17:44:35.009Z,96.20
2019-03-20T17:47:05.329Z,96.40
2019-03-20T17:49:36.065Z,96.50
2019-03-20T17:52:06.181Z,96.50
2019-03-20T17:54:36.301Z,96.50
2019-03-20T17:57:06.821Z,96.40
2019-03-20T17:59:37.358Z,96.60
2019-03-20T18:02:07.699Z,96.50
2019-03-20T18:04:37.896Z,96.50
2019-03-20T18:07:08.740Z,96.70
2019-03-20T18:09:38.859Z,96.90
2019-03-20T18:12:09.084Z,96.90
2019-03-20T18:14:39.710Z,96.90
2019-03-20T18:17:10.240Z,96.80
2019-03-20T18:19:40.561Z,96.90
2019-03-20T18:22:12.135Z,97.10
2019-03-20T18:24:42.439Z,97.10
2019-03-20T18:27:12.762Z,97.30
2019-03-20T18:29:43.421Z,97.40
2019-03-20T18:32:14.024Z,97.20
2019-03-20T18:34:44.143Z,97.30
2019-03-20T18:37:14.466Z,97.50
2019-03-20T18:39:44.781Z,97.40
2019-03-20T18:42:15.123Z,97.60
2019-03-20T18:44:45.446Z,97.60
2019-03-20T18:47:16.181Z,97.80
2019-03-20T18:49:46.507Z,98.00
2019-03-20T18:52:17.025Z,98.20
2019-03-20T18:54:47.565Z,98.10
2019-03-20T18:57:19.063Z,98.40
2019-03-20T18:59:51.481Z,98.50
2019-03-20T19:02:23.453Z,98.80
2019-03-20T19:04:53.919Z,99.10
2019-03-20T19:07:24.694Z,99.40
2019-03-20T19:09:57.511Z,99.80
2019-03-20T19:12:28.216Z,99.90
2019-03-20T19:14:58.657Z,99.90
2019-03-20T19:17:29.477Z,99.90
2019-03-20T19:20:00.641Z,99.90
2019-03-20T19:22:30.947Z,99.90
2019-03-20T19:25:01.694Z,99.90
2019-03-20T19:27:32.205Z,99.90
2019-03-20T19:30:02.533Z,99.90
2019-03-20T19:32:33.059Z,99.90
2019-03-20T19:35:05.432Z,99.90
2019-03-20T19:37:35.753Z,99.90
2019-03-20T19:40:09.772Z,99.90
2019-03-20T19:42:39.815Z,99.90
2019-03-20T19:45:13.278Z,99.90
2019-03-20T19:47:43.602Z,99.90
2019-03-20T19:50:15.501Z,99.90
2019-03-20T19:52:45.691Z,99.90
2019-03-20T19:55:18.042Z,99.90
2019-03-20T19:57:48.590Z,99.90
2019-03-20T20:00:28.533Z,99.90
2019-03-20T20:03:00.708Z,99.90
2019-03-20T20:05:30.642Z,99.90
2019-03-20T20:08:00.941Z,99.90
2019-03-20T20:10:31.158Z,99.90
2019-03-20T20:13:02.040Z,99.90
2019-03-20T20:15:35.616Z,99.90
2019-03-20T20:18:05.636Z,99.90
2019-03-20T20:20:37.343Z,99.90
2019-03-20T20:23:07.398Z,99.90
2019-03-20T20:25:37.298Z,99.90
2019-03-20T20:28:07.332Z,99.90
2019-03-20T20:30:37.500Z,99.90
2019-03-20T20:33:07.429Z,99.90
2019-03-20T20:35:37.423Z,99.90
2019-03-20T20:38:07.421Z,99.90
2019-03-20T20:40:37.423Z,99.90
2019-03-20T20:43:07.932Z,99.90
2019-03-20T20:45:39.702Z,99.90
2019-03-20T20:48:09.813Z,99.90
2019-03-20T20:50:40.132Z,99.90
2019-03-20T20:53:10.453Z,99.90
2019-03-20T20:55:40.569Z,99.90
2019-03-20T20:58:10.895Z,99.90
2019-03-20T21:00:41.013Z,99.90
2019-03-20T21:03:11.337Z,99.90
2019-03-20T21:05:41.467Z,99.90
2019-03-20T21:08:11.780Z,99.90
2019-03-20T21:10:42.309Z,99.90
2019-03-20T21:13:12.630Z,99.90
2019-03-20T21:15:46.763Z,99.90
2019-03-20T21:18:44.204Z,99.90
2019-03-20T21:21:14.731Z,99.90
2019-03-20T21:24:21.104Z,99.90
2019-03-20T21:27:09.855Z,99.90
2019-03-20T21:30:03.117Z,99.90
2019-03-20T21:32:48.801Z,99.90
2019-03-20T21:35:44.726Z,99.90
2019-03-20T21:38:13.824Z,99.90
2019-03-20T21:41:09.538Z,99.90
2019-03-20T21:44:04.644Z,99.90
2019-03-20T21:46:49.100Z,99.90
2019-03-20T21:49:19.627Z,99.90
2019-03-20T21:51:49.939Z,99.90
2019-03-20T21:54:45.874Z,99.90
2019-03-20T21:57:27.872Z,99.90
2019-03-20T22:00:20.529Z,99.90
2019-03-20T22:02:51.057Z,99.90
2019-03-20T22:05:41.031Z,99.90
2019-03-20T22:08:12.379Z,99.90
2019-03-20T22:11:00.523Z,99.90
2019-03-20T22:13:33.719Z,99.90
2019-03-20T22:16:21.238Z,99.90
2019-03-20T22:19:11.020Z,99.90
2019-03-20T22:22:06.737Z,99.90
2019-03-20T22:24:56.519Z,99.90
2019-03-20T22:27:47.731Z,99.90
2019-03-20T22:30:18.465Z,99.90
2019-03-20T22:33:24.842Z,99.90
2019-03-20T22:35:55.157Z,99.90
2019-03-20T22:38:40.430Z,99.90
2019-03-20T22:41:33.487Z,99.90
2019-03-20T22:44:04.638Z,99.90
2019-03-20T22:46:43.556Z,99.90
2019-03-20T22:49:19.409Z,99.90
2019-03-20T22:51:52.806Z,99.90
2019-03-20T22:54:59.383Z,99.90
2019-03-20T22:57:35.437Z,99.90
2019-03-20T23:00:09.036Z,99.90
2019-03-20T23:02:48.167Z,99.90
2019-03-20T23:05:18.687Z,99.90
2019-03-20T23:07:49.228Z,99.90
2019-03-20T23:10:19.342Z,99.90
2019-03-20T23:12:49.665Z,99.90
2019-03-20T23:15:21.535Z,99.90
2019-03-20T23:17:52.362Z,99.90
2019-03-20T23:20:25.758Z,99.90
2019-03-20T23:22:56.080Z,99.90
2019-03-20T23:25:27.299Z,99.90
2019-03-20T23:27:57.642Z,99.90
2019-03-20T23:30:33.810Z,99.90
2019-03-20T23:33:03.929Z,99.90
2019-03-20T23:35:34.252Z,99.90
2019-03-20T23:38:04.577Z,99.90
2019-03-20T23:40:34.902Z,99.90
2019-03-20T23:43:10.639Z,99.90
2019-03-20T23:45:41.490Z,99.90
2019-03-20T23:48:21.051Z,99.90
2019-03-20T23:50:54.422Z,99.90
2019-03-20T23:53:24.746Z,99.90
2019-03-20T23:55:54.867Z,99.90
2019-03-20T23:58:25.190Z,99.90
